createdAt,value
2018-11-10T00:03:08.786Z,9.4
2018-11-10T00:19:47.190Z,9.4
2018-11-10T00:36:25.608Z,9.1
2018-11-10T00:53:03.929Z,9.1
2018-11-10T01:09:42.320Z,9.1
2018-11-10T01:26:20.724Z,9.4
2018-11-10T01:42:59.341Z,9.8
2018-11-10T01:59:38.243Z,10.1
2018-11-10T02:16:17.354Z,10.4
2018-11-10T02:32:56.615Z,10.4
2018-11-10T02:49:36.184Z,10.7
2018-11-10T03:06:15.745Z,10.7
2018-11-10T03:22:55.389Z,11.0
2018-11-10T03:39:35.200Z,11.0
2018-11-10T03:56:15.216Z,11.0
2018-11-10T04:12:54.988Z,11.4
2018-11-10T04:29:35.100Z,11.7
2018-11-10T04:46:15.360Z,11.7
2018-11-10T05:02:55.589Z,11.4
2018-11-10T05:19:35.722Z,11.4
2018-11-10T05:52:55.964Z,11.4
2018-11-10T06:09:36.253Z,11.7
2018-11-10T06:26:16.847Z,12.0
2018-11-10T06:42:57.533Z,12.3
2018-11-10T06:59:38.397Z,12.3
2018-11-10T07:16:19.208Z,12.3
2018-11-10T07:33:00.027Z,12.0
2018-11-10T08:06:21.359Z,12.0
2018-11-10T08:39:42.563Z,12.0
2018-11-10T08:56:23.243Z,12.0
2018-11-10T09:13:04.156Z,12.3
2018-11-10T09:29:45.218Z,13.0
2018-11-10T09:46:26.686Z,13.3
2018-11-10T10:03:08.422Z,13.3
2018-11-10T10:19:50.208Z,13.6
2018-11-10T10:36:32.102Z,13.6
2018-11-10T10:53:14.327Z,13.6
2018-11-10T11:09:56.839Z,13.9
2018-11-10T11:26:39.664Z,14.2
2018-11-10T11:43:22.522Z,14.2
2018-11-10T12:00:05.355Z,14.2
2018-11-10T12:16:48.298Z,14.2
2018-11-10T12:33:31.075Z,14.6
2018-11-10T12:50:13.853Z,14.2
2018-11-10T13:06:56.429Z,13.9
2018-11-10T13:23:38.738Z,13.9
2018-11-10T13:40:21.052Z,13.6
2018-11-10T14:13:45.028Z,13.6
2018-11-10T14:30:26.940Z,13.3
2018-11-10T14:47:08.774Z,13.3
2018-11-10T15:03:50.461Z,13.0
2018-11-10T15:20:32.040Z,13.0
2018-11-10T15:37:13.648Z,13.0
2018-11-10T15:54:00.336Z,13.0
2018-11-10T16:10:36.595Z,13.0
2018-11-10T16:27:18.056Z,13.0
2018-11-10T16:44:00.283Z,13.0
2018-11-10T17:00:41.284Z,13.0
2018-11-10T17:17:23.016Z,13.0
2018-11-10T17:34:04.654Z,13.0
2018-11-10T17:50:46.601Z,13.0
2018-11-10T18:07:29.755Z,13.0
2018-11-10T18:24:09.866Z,13.0
2018-11-10T18:57:34.013Z,13.3
2018-11-10T19:14:15.890Z,13.3
2018-11-10T19:30:57.981Z,13.3
2018-11-10T19:47:40.754Z,13.3
2018-11-10T20:04:22.603Z,13.3
2018-11-10T20:21:03.987Z,13.0
2018-11-10T20:37:45.305Z,12.6
2018-11-10T20:54:26.272Z,12.6
2018-11-10T21:11:07.249Z,12.6
2018-11-10T21:27:48.200Z,12.6
2018-11-10T21:44:29.156Z,12.6
2018-11-10T22:01:10.207Z,12.3
2018-11-10T22:17:51.096Z,12.3
2018-11-10T22:34:31.919Z,12.3
2018-11-10T22:51:12.934Z,12.3
2018-11-10T23:07:53.710Z,12.3
2018-11-10T23:24:34.478Z,12.3
2018-11-10T23:41:15.203Z,12.3
2018-11-10T23:57:55.963Z,12.3
